.
WxDataArchive / Data Records for 2015-03-14
2015-03-13 March 2015 2015-03-15

Data Records for Saturday, 14 March 2015

Time	Temp	Chill	HIndex	Humid	Dewpt	 Wind 	HiWind	WindDir	Rain 	Barom
-----	----	-----	------	-----	-----	------	------	-------	-----	-----
00:00	41.8	41.8	41.8	96	40.7	0	1	90	0.00	30.007 
00:05	42.1	42.1	42.1	96	41.0	0	1	90	0.00	30.007 
00:10	42.2	42.2	42.2	96	41.1	0	0	---	0.00	30.007 
00:15	42.5	42.5	42.5	96	41.4	0	0	---	0.00	30.008 
00:20	42.6	42.6	42.6	96	41.5	0	0	---	0.00	30.008 
00:25	42.8	42.8	42.8	96	41.7	0	0	---	0.00	30.008 
00:30	42.8	42.8	42.8	96	41.7	0	0	---	0.00	30.003 
00:35	42.6	42.6	42.6	96	41.5	0	0	---	0.00	30.003 
00:40	42.8	42.8	42.8	96	41.7	0	0	---	0.00	30.003 
00:45	42.9	42.9	42.9	96	41.8	0	0	---	0.00	29.997 
00:50	43.1	43.1	43.1	96	42.0	0	0	---	0.00	29.997 
00:55	43.1	43.1	43.1	96	42.0	0	0	---	0.00	29.997 
01:00	43.1	43.1	43.1	96	42.0	0	0	---	0.00	29.993 
01:05	42.9	42.9	42.9	96	41.8	0	0	---	0.00	29.993 
01:10	42.9	42.9	42.9	96	41.8	0	0	---	0.00	29.993 
01:15	42.8	42.8	42.8	96	41.7	0	0	---	0.00	29.988 
01:20	42.8	42.8	42.8	96	41.7	0	0	---	0.00	29.988 
01:25	42.8	42.8	42.8	96	41.7	0	0	---	0.00	29.988 
01:30	42.9	42.9	42.9	96	41.8	0	0	---	0.00	29.984 
01:35	43.2	43.2	43.2	96	42.1	0	0	---	0.00	29.984 
01:40	43.5	43.5	43.5	96	42.4	0	0	---	0.00	29.984 
01:45	43.6	43.6	43.6	96	42.5	0	0	---	0.00	29.976 
01:50	43.8	43.8	43.8	96	42.7	0	0	---	0.00	29.976 
01:55	43.9	43.9	43.9	96	42.8	0	0	---	0.00	29.976 
02:00	43.9	43.9	43.9	96	42.8	0	0	---	0.00	29.973 
02:05	44.1	44.1	44.1	96	43.0	0	0	---	0.00	29.973 
02:10	44.2	44.2	44.2	96	43.1	0	0	---	0.00	29.973 
02:15	44.5	44.5	44.5	96	43.4	0	0	---	0.00	29.970 
02:20	44.6	44.6	44.6	96	43.5	0	0	---	0.00	29.970 
02:25	44.8	44.8	44.8	96	43.7	0	0	---	0.00	29.970 
02:30	44.9	44.9	44.9	96	43.8	0	0	---	0.00	29.969 
02:35	45.1	45.1	45.1	96	44.0	0	0	---	0.00	29.969 
02:40	45.2	45.2	45.2	96	44.1	0	0	---	0.00	29.969 
02:45	45.4	45.4	45.4	96	44.3	0	1	90	0.00	29.966 
02:50	45.5	45.5	45.5	96	44.4	0	1	90	0.00	29.966 
02:55	45.7	45.7	45.7	96	44.6	0	1	90	0.00	29.966 
03:00	45.7	45.7	45.7	96	44.6	0	0	---	0.00	29.959 
03:05	45.5	45.5	45.5	96	44.4	0	0	---	0.00	29.959 
03:10	45.7	45.7	45.7	96	44.6	0	2	90	0.00	29.959 
03:15	46.0	46.0	46.0	96	44.9	0	2	90	0.00	29.953 
03:20	46.0	46.0	46.0	96	44.9	0	1	90	0.00	29.953 
03:25	46.0	46.0	46.0	96	44.9	0	1	90	0.00	29.953 
03:30	46.0	46.0	46.0	96	44.9	0	0	---	0.00	29.948 
03:35	46.0	46.0	46.0	96	44.9	0	1	90	0.00	29.948 
03:40	46.0	46.0	46.0	96	44.9	0	0	---	0.00	29.948 
03:45	45.8	45.8	45.8	96	44.7	0	0	---	0.00	29.937 
03:50	45.7	45.7	45.7	96	44.6	0	0	---	0.00	29.937 
03:55	45.8	45.8	45.8	96	44.7	0	1	90	0.01	29.937 
04:00	45.8	45.8	45.8	97	45.0	0	1	90	0.00	29.934 
04:05	45.8	45.8	45.8	96	44.7	0	0	---	0.00	29.934 
04:10	45.7	45.7	45.7	96	44.6	0	1	90	0.00	29.934 
04:15	45.7	45.7	45.7	96	44.6	0	0	---	0.00	29.926 
04:20	45.7	45.7	45.7	96	44.6	0	0	---	0.00	29.926 
04:25	45.5	45.5	45.5	96	44.4	0	0	---	0.00	29.926 
04:30	45.5	45.5	45.5	96	44.4	0	0	---	0.00	29.920 
04:35	45.7	45.7	45.7	97	44.9	0	1	90	0.00	29.920 
04:40	45.8	45.8	45.8	97	45.0	0	1	90	0.00	29.920 
04:45	45.8	45.8	45.8	97	45.0	0	1	90	0.00	29.916 
04:50	45.8	45.8	45.8	97	45.0	0	1	90	0.00	29.916 
04:55	46.0	46.0	46.0	97	45.2	0	1	90	0.00	29.916 
05:00	46.0	46.0	46.0	97	45.2	0	1	90	0.00	29.915 
05:05	45.8	45.8	45.8	97	45.0	0	1	90	0.00	29.915 
05:10	45.7	45.7	45.7	97	44.9	0	1	90	0.00	29.915 
05:15	45.7	45.7	45.7	97	44.9	0	2	90	0.00	29.916 
05:20	45.7	45.7	45.7	97	44.9	0	2	90	0.00	29.916 
05:25	45.5	45.5	45.5	97	44.7	0	2	90	0.00	29.916 
05:30	45.5	45.5	45.5	97	44.7	0	1	90	0.00	29.913 
05:35	45.5	45.5	45.5	97	44.7	0	1	90	0.00	29.913 
05:40	45.4	45.4	45.4	97	44.6	0	1	90	0.00	29.913 
05:45	45.4	45.4	45.4	97	44.6	0	1	90	0.00	29.911 
05:50	45.2	45.2	45.2	97	44.4	0	1	90	0.00	29.911 
05:55	45.2	45.2	45.2	97	44.4	0	2	90	0.00	29.911 
06:00	45.2	45.2	45.2	97	44.4	0	2	90	0.00	29.909 
06:05	45.1	45.1	45.1	97	44.3	0	1	90	0.00	29.909 
06:10	45.1	45.1	45.1	97	44.3	0	1	90	0.00	29.909 
06:15	44.9	44.9	44.9	97	44.1	0	1	90	0.00	29.911 
06:20	44.8	44.8	44.8	97	44.0	0	2	90	0.00	29.911 
06:25	44.8	44.8	44.8	97	44.0	0	2	90	0.00	29.911 
06:30	44.6	44.6	44.6	97	43.8	0	1	90	0.00	29.915 
06:35	44.5	44.5	44.5	97	43.7	0	2	90	0.00	29.915 
06:40	44.5	44.5	44.5	97	43.7	0	2	90	0.00	29.915 
06:45	44.5	44.5	44.5	97	43.7	0	2	90	0.00	29.910 
06:50	44.5	44.5	44.5	97	43.7	0	2	90	0.00	29.910 
06:55	44.3	44.3	44.3	97	43.5	0	2	90	0.00	29.910 
07:00	44.5	44.5	44.5	97	43.7	1	2	90	0.00	29.919 
07:05	44.3	44.3	44.3	97	43.5	0	1	90	0.00	29.919 
07:10	44.2	44.2	44.2	97	43.4	0	2	90	0.00	29.919 
07:15	44.1	44.1	44.1	97	43.3	0	1	90	0.00	29.922 
07:20	44.1	44.1	44.1	97	43.3	0	1	90	0.00	29.922 
07:25	44.1	44.1	44.1	97	43.3	0	2	90	0.00	29.922 
07:30	44.1	44.1	44.1	97	43.3	0	2	90	0.00	29.931 
07:35	44.1	44.1	44.1	97	43.3	1	2	90	0.00	29.931 
07:40	43.9	43.9	43.9	97	43.1	0	2	90	0.00	29.931 
07:45	43.9	43.9	43.9	97	43.1	1	3	90	0.00	29.927 
07:50	43.9	43.9	43.9	97	43.1	0	2	225	0.00	29.927 
07:55	43.8	43.8	43.8	97	43.0	1	3	225	0.00	29.927 
08:00	43.8	43.8	43.8	97	43.0	1	2	225	0.00	29.925 
08:05	43.6	43.6	43.6	97	42.8	1	2	225	0.00	29.925 
08:10	43.6	43.6	43.6	97	42.8	1	3	225	0.00	29.925 
08:15	43.6	43.6	43.6	97	42.8	1	2	225	0.00	29.935 
08:20	43.6	43.6	43.6	97	42.8	1	3	225	0.00	29.935 
08:25	43.5	43.5	43.5	97	42.7	1	3	225	0.00	29.935 
08:30	43.5	43.5	43.5	97	42.7	1	2	225	0.00	29.942 
08:35	43.5	43.5	43.5	97	42.7	1	3	225	0.00	29.942 
08:40	43.5	43.5	43.5	97	42.7	2	3	225	0.00	29.942 
08:45	43.5	43.5	43.5	97	42.7	1	3	225	0.00	29.953 
08:50	43.5	43.5	43.5	97	42.7	2	3	225	0.00	29.953 
08:55	43.5	43.5	43.5	97	42.7	2	4	225	0.00	29.953 
09:00	43.5	43.5	43.5	97	42.7	1	3	225	0.00	29.957 
09:05	43.3	43.3	43.3	97	42.5	1	3	225	0.00	29.957 
09:10	43.3	43.3	43.3	97	42.5	1	3	225	0.00	29.957 
09:15	43.3	43.3	43.3	97	42.5	1	3	225	0.00	29.957 
09:20	43.3	43.3	43.3	97	42.5	1	2	225	0.00	29.957 
09:25	43.3	43.3	43.3	97	42.5	1	3	225	0.00	29.957 
09:30	43.3	43.3	43.3	97	42.5	1	3	225	0.00	29.965 
09:35	43.3	43.3	43.3	97	42.5	1	4	225	0.00	29.965 
09:40	43.3	43.3	43.3	97	42.5	1	3	225	0.00	29.965 
09:45	43.3	43.3	43.3	97	42.5	1	3	225	0.00	29.962 
09:50	43.3	43.3	43.3	97	42.5	1	2	225	0.00	29.962 
09:55	43.3	43.3	43.3	97	42.5	1	2	225	0.00	29.962 
10:00	43.3	43.3	43.3	97	42.5	1	3	225	0.00	29.961 
10:05	43.3	43.3	43.3	97	42.5	2	5	292	0.00	29.961 
10:10	43.3	43.3	43.3	97	42.5	2	5	338	0.00	29.961 
10:15	43.3	43.3	43.3	97	42.5	1	4	315	0.00	29.958 
10:20	43.5	43.5	43.5	97	42.7	1	3	315	0.00	29.958 
10:25	43.5	43.5	43.5	97	42.7	1	5	315	0.00	29.958 
10:30	43.6	43.6	43.6	97	42.8	0	2	315	0.00	29.959 
10:35	43.8	43.8	43.8	97	43.0	1	3	270	0.00	29.959 
10:40	43.9	43.9	43.9	97	43.1	2	4	270	0.00	29.959 
10:45	44.2	44.2	44.2	97	43.4	2	4	292	0.00	29.959 
10:50	44.3	44.3	44.3	97	43.5	2	6	292	0.00	29.959 
10:55	44.5	44.5	44.5	96	43.4	1	5	292	0.00	29.959 
11:00	44.5	44.5	44.5	96	43.4	2	5	292	0.00	29.953 
11:05	44.5	44.5	44.5	96	43.4	2	7	292	0.00	29.953 
11:10	44.6	44.6	44.6	96	43.5	3	7	292	0.00	29.953 
11:15	44.8	44.8	44.8	95	43.5	2	7	270	0.00	29.953 
11:20	44.9	44.9	44.9	94	43.3	3	7	315	0.00	29.953 
11:25	45.2	45.2	45.2	93	43.3	2	5	338	0.00	29.953 
11:30	45.5	45.5	45.5	92	43.3	2	6	315	0.00	29.955 
11:35	46.5	46.5	46.5	91	44.0	3	6	338	0.00	29.955 
11:40	47.6	47.6	47.6	89	44.5	2	5	338	0.00	29.955 
11:45	47.7	47.7	47.7	85	43.4	2	7	315	0.00	29.952 
11:50	48.0	48.0	48.0	82	42.8	2	5	270	0.00	29.952 
11:55	48.2	48.2	48.2	79	42.0	3	9	270	0.00	29.952 
12:00	48.5	48.5	48.5	77	41.6	3	7	270	0.00	29.955 
12:05	48.5	47.1	48.5	75	40.9	4	12	338	0.00	29.955 
12:10	48.6	48.6	48.6	76	41.4	2	7	315	0.00	29.955 
12:15	48.8	48.8	48.8	74	40.9	3	7	292	0.00	29.951 
12:20	48.9	47.6	48.9	73	40.6	4	9	270	0.00	29.951 
12:25	49.1	49.1	49.1	72	40.5	3	7	292	0.00	29.951 
12:30	49.4	49.4	49.4	72	40.8	3	6	292	0.00	29.950 
12:35	49.6	49.6	49.6	71	40.6	3	6	292	0.00	29.950 
12:40	49.6	49.6	49.6	71	40.6	3	5	270	0.00	29.950 
12:45	49.8	49.8	49.8	70	40.4	2	6	292	0.00	29.950 
12:50	49.9	49.9	49.9	71	40.9	3	10	315	0.00	29.950 
12:55	49.6	48.4	49.6	70	40.2	4	8	315	0.00	29.950 
13:00	49.8	48.6	49.8	70	40.4	4	9	338	0.00	29.951 
13:05	49.8	48.6	49.8	68	39.7	4	9	292	0.00	29.951 
13:10	49.8	49.8	49.8	69	40.0	3	10	338	0.00	29.951 
13:15	49.9	49.9	49.9	69	40.1	3	7	315	0.00	29.947 
13:20	50.4	50.4	50.4	68	40.2	3	8	292	0.00	29.947 
13:25	50.5	50.5	50.5	67	40.0	4	9	315	0.00	29.947 
13:30	50.5	50.5	50.5	67	40.0	4	11	338	0.00	29.943 
13:35	50.8	50.8	50.8	69	41.0	2	5	338	0.00	29.943 
13:40	51.0	51.0	51.0	66	40.0	4	9	338	0.00	29.943 
13:45	51.1	51.1	51.1	66	40.1	3	7	292	0.00	29.939 
13:50	51.7	51.7	51.7	66	40.7	2	5	338	0.00	29.939 
13:55	52.0	52.0	52.0	64	40.2	3	10	315	0.00	29.939 
14:00	52.0	52.0	52.0	64	40.2	3	6	270	0.00	29.936 
14:05	52.0	52.0	52.0	63	39.8	4	11	315	0.00	29.936 
14:10	52.2	52.2	52.2	63	40.0	3	6	315	0.00	29.936 
14:15	52.2	52.2	52.2	62	39.6	4	9	270	0.00	29.934 
14:20	52.0	52.0	52.0	62	39.4	3	9	270	0.00	29.934 
14:25	52.2	52.2	52.2	62	39.6	2	7	315	0.00	29.934 
14:30	52.5	52.5	52.5	62	39.9	2	7	248	0.00	29.929 
14:35	52.6	52.6	52.6	59	38.7	4	7	270	0.00	29.929 
14:40	52.9	52.9	52.9	59	39.0	4	9	270	0.00	29.929 
14:45	53.3	53.3	53.3	59	39.3	2	5	292	0.00	29.928 
14:50	53.6	53.6	53.6	58	39.2	3	7	292	0.00	29.928 
14:55	53.8	53.8	53.8	56	38.5	3	10	315	0.00	29.928 
15:00	53.9	53.9	53.9	57	39.0	4	7	315	0.00	29.928 
15:05	54.1	54.1	54.1	55	38.3	3	7	292	0.00	29.928 
15:10	53.8	53.8	53.8	55	38.0	3	10	338	0.00	29.928 
15:15	53.2	53.2	53.2	56	37.9	4	7	292	0.00	29.934 
15:20	53.2	53.2	53.2	58	38.8	3	7	270	0.00	29.934 
15:25	53.5	53.5	53.5	58	39.1	3	6	248	0.00	29.934 
15:30	53.5	53.5	53.5	57	38.6	3	6	270	0.00	29.932 
15:35	53.6	53.6	53.6	57	38.7	3	6	270	0.00	29.932 
15:40	53.8	53.8	53.8	57	38.9	3	6	270	0.00	29.932 
15:45	54.1	54.1	54.1	57	39.2	3	5	270	0.00	29.935 
15:50	54.4	54.4	54.4	56	39.0	2	5	292	0.00	29.935 
15:55	54.7	54.7	54.7	55	38.9	3	9	270	0.00	29.935 
16:00	54.4	54.4	54.4	55	38.6	3	7	292	0.00	29.930 
16:05	54.5	54.5	54.5	55	38.7	3	6	270	0.00	29.930 
16:10	54.5	54.5	54.5	53	37.7	3	7	292	0.00	29.930 
16:15	54.5	54.5	54.5	54	38.2	3	7	315	0.00	29.934 
16:20	54.5	54.5	54.5	53	37.7	3	6	270	0.00	29.934 
16:25	54.8	54.8	54.8	54	38.5	3	9	270	0.00	29.934 
16:30	54.8	54.8	54.8	53	38.0	4	7	315	0.00	29.942 
16:35	54.4	54.4	54.4	52	37.1	3	6	270	0.00	29.942 
16:40	54.2	54.2	54.2	53	37.4	4	6	292	0.00	29.942 
16:45	54.2	54.2	54.2	53	37.4	3	6	338	0.00	29.943 
16:50	54.2	54.2	54.2	53	37.4	3	7	315	0.00	29.943 
16:55	54.2	54.2	54.2	52	37.0	3	9	270	0.00	29.943 
17:00	54.1	54.1	54.1	53	37.4	4	9	270	0.00	29.945 
17:05	53.8	53.8	53.8	53	37.1	4	7	270	0.00	29.945 
17:10	53.6	53.6	53.6	54	37.4	2	6	292	0.00	29.945 
17:15	53.5	53.5	53.5	53	36.8	4	10	270	0.00	29.952 
17:20	53.2	53.2	53.2	54	37.0	3	10	270	0.00	29.952 
17:25	53.1	53.1	53.1	54	36.9	3	7	270	0.00	29.952 
17:30	52.8	52.8	52.8	55	37.1	3	7	338	0.00	29.958 
17:35	52.5	52.5	52.5	55	36.8	3	9	292	0.00	29.958 
17:40	52.3	52.3	52.3	55	36.6	3	7	292	0.00	29.958 
17:45	52.2	52.2	52.2	57	37.4	2	5	292	0.00	29.963 
17:50	51.9	51.9	51.9	55	36.2	3	9	315	0.00	29.963 
17:55	51.4	51.4	51.4	57	36.7	3	6	315	0.00	29.963 
18:00	51.3	51.3	51.3	57	36.6	3	9	292	0.00	29.973 
18:05	51.0	51.0	51.0	58	36.7	2	7	315	0.00	29.973 
18:10	50.7	50.7	50.7	58	36.5	2	6	270	0.00	29.973 
18:15	50.7	50.7	50.7	58	36.5	1	5	315	0.00	29.981 
18:20	50.1	50.1	50.1	58	35.9	3	8	292	0.00	29.981 
18:25	49.5	49.5	49.5	59	35.8	3	7	315	0.00	29.981 
18:30	49.2	49.2	49.2	59	35.5	3	7	315	0.00	29.991 
18:35	48.9	48.9	48.9	59	35.2	3	7	315	0.00	29.991 
18:40	48.8	48.8	48.8	59	35.1	3	9	292	0.00	29.991 
18:45	48.6	48.6	48.6	60	35.3	2	6	292	0.00	29.996 
18:50	48.3	48.3	48.3	60	35.1	2	6	315	0.00	29.996 
18:55	48.2	48.2	48.2	60	35.0	2	7	292	0.00	29.996 
19:00	47.9	47.9	47.9	60	34.7	2	5	338	0.00	30.001 
19:05	47.6	47.6	47.6	61	34.8	2	6	315	0.00	30.001 
19:10	47.3	47.3	47.3	61	34.5	2	7	338	0.00	30.001 
19:15	47.1	47.1	47.1	61	34.4	3	7	292	0.00	30.015 
19:20	47.0	47.0	47.0	62	34.7	2	6	292	0.00	30.015 
19:25	46.7	46.7	46.7	62	34.4	2	7	292	0.00	30.015 
19:30	46.4	46.4	46.4	62	34.1	2	6	0	0.00	30.026 
19:35	46.2	46.2	46.2	62	33.9	2	6	338	0.00	30.026 
19:40	46.0	46.0	46.0	63	34.1	1	4	292	0.00	30.026 
19:45	45.5	45.5	45.5	63	33.6	1	4	0	0.00	30.032 
19:50	45.2	45.2	45.2	64	33.8	1	4	338	0.00	30.032 
19:55	44.8	44.8	44.8	65	33.8	1	4	315	0.00	30.032 
20:00	44.3	44.3	44.3	65	33.3	2	9	315	0.00	30.044 
20:05	44.1	44.1	44.1	66	33.5	1	3	315	0.00	30.044 
20:10	43.8	43.8	43.8	67	33.6	1	4	315	0.00	30.044 
20:15	43.5	43.5	43.5	67	33.3	1	3	315	0.00	30.049 
20:20	43.3	43.3	43.3	68	33.5	1	3	292	0.00	30.049 
20:25	43.1	43.1	43.1	68	33.3	0	3	292	0.00	30.049 
20:30	43.1	43.1	43.1	69	33.6	1	3	292	0.00	30.054 
20:35	42.8	42.8	42.8	69	33.3	0	3	292	0.00	30.054 
20:40	42.6	42.6	42.6	69	33.2	0	2	292	0.00	30.054 
20:45	42.5	42.5	42.5	69	33.1	0	3	292	0.00	30.063 
20:50	42.2	42.2	42.2	70	33.1	0	2	292	0.00	30.063 
20:55	42.2	42.2	42.2	70	33.1	0	1	292	0.00	30.063 
21:00	42.1	42.1	42.1	70	33.0	0	1	292	0.00	30.063 
21:05	41.8	41.8	41.8	71	33.1	0	0	---	0.00	30.063 
21:10	41.3	41.3	41.3	71	32.6	0	0	---	0.00	30.063 
21:15	40.9	40.9	40.9	71	32.2	0	0	---	0.00	30.066 
21:20	40.5	40.5	40.5	72	32.2	0	0	---	0.00	30.066 
21:25	40.1	40.1	40.1	73	32.2	0	0	---	0.00	30.066 
21:30	39.6	39.6	39.6	74	32.0	0	0	---	0.00	30.067 
21:35	39.3	39.3	39.3	74	31.7	0	0	---	0.00	30.067 
21:40	38.9	38.9	38.9	75	31.7	0	0	---	0.00	30.067 
21:45	38.6	38.6	38.6	76	31.7	0	0	---	0.00	30.068 
21:50	38.3	38.3	38.3	77	31.7	0	0	---	0.00	30.068 
21:55	38.0	38.0	38.0	77	31.4	0	0	---	0.00	30.068 
22:00	37.8	37.8	37.8	78	31.6	0	0	---	0.00	30.066 
22:05	37.3	37.3	37.3	79	31.4	0	0	---	0.00	30.066 
22:10	37.0	37.0	37.0	79	31.1	0	0	---	0.00	30.066 
22:15	36.8	36.8	36.8	80	31.2	0	0	---	0.00	30.071 
22:20	36.6	36.6	36.6	81	31.3	0	0	---	0.00	30.071 
22:25	36.5	36.5	36.5	81	31.2	0	0	---	0.00	30.071 
22:30	36.3	36.3	36.3	82	31.3	0	0	---	0.00	30.079 
22:35	36.2	36.2	36.2	82	31.2	0	0	---	0.00	30.079 
22:40	35.9	35.9	35.9	82	31.0	0	0	---	0.00	30.079 
22:45	35.8	35.8	35.8	83	31.2	0	0	---	0.00	30.087 
22:50	35.6	35.6	35.6	83	31.0	0	0	---	0.00	30.087 
22:55	35.3	35.3	35.3	83	30.7	0	0	---	0.00	30.087 
23:00	35.2	35.2	35.2	84	30.9	0	0	---	0.00	30.090 
23:05	35.2	35.2	35.2	84	30.9	0	0	---	0.00	30.090 
23:10	35.0	35.0	35.0	84	30.7	0	0	---	0.00	30.090 
23:15	35.0	35.0	35.0	85	31.0	0	0	---	0.00	30.094 
23:20	35.0	35.0	35.0	85	31.0	0	0	---	0.00	30.094 
23:25	35.3	35.3	35.3	86	31.5	0	0	---	0.00	30.094 
23:30	35.8	35.8	35.8	86	32.0	0	0	---	0.00	30.099 
23:35	36.2	36.2	36.2	86	32.4	0	0	---	0.00	30.099 
23:40	36.6	36.6	36.6	86	32.8	0	0	---	0.00	30.099 
23:45	36.9	36.9	36.9	86	33.1	0	0	---	0.00	30.102 
23:50	37.2	37.2	37.2	85	33.1	0	1	292	0.00	30.102 
23:55	37.6	37.6	37.6	85	33.5	0	1	292	0.00	30.102 

CoCoRaHS
IN-AL-39
A2 Web Hosting
Creative Commons License
GoDaddy
search engine by freefind advanced

loaded 2018-11-16 11:20:31 • last modified 2010-11-18 10:43:29
Privacy PolicyDisclaimer
• wx.awcolley.com is powered by PmWiki v.2002016 •
• all content (unless otherwise noted) © 2018 A W Colley